createdAt,value
2022-07-29T00:01:46.019Z,22.62
2022-07-29T00:04:15.114Z,22.65
2022-07-29T00:06:45.463Z,22.63
2022-07-29T00:09:14.904Z,22.57
2022-07-29T00:11:44.646Z,22.57
2022-07-29T00:14:13.881Z,22.57
2022-07-29T00:16:44.155Z,22.57
2022-07-29T00:19:15.128Z,22.52
2022-07-29T00:21:43.625Z,22.53
2022-07-29T00:24:13.810Z,22.49
2022-07-29T00:26:42.475Z,22.49
2022-07-29T00:29:33.615Z,22.46
2022-07-29T00:32:01.590Z,22.51
2022-07-29T00:34:51.722Z,22.53
2022-07-29T00:37:20.350Z,22.60
2022-07-29T00:39:48.723Z,22.57
2022-07-29T00:42:20.088Z,22.51
2022-07-29T00:44:51.543Z,22.52
2022-07-29T00:47:21.153Z,22.49
2022-07-29T00:49:50.775Z,22.49
2022-07-29T00:52:19.529Z,22.39
2022-07-29T00:54:48.676Z,22.36
2022-07-29T00:57:19.172Z,22.27
2022-07-29T00:59:47.413Z,22.21
2022-07-29T01:02:16.174Z,22.18
2022-07-29T01:04:47.474Z,22.09
2022-07-29T01:07:22.342Z,22.05
2022-07-29T01:09:54.126Z,22.01
2022-07-29T01:12:27.279Z,21.91
2022-07-29T01:15:01.113Z,21.90
2022-07-29T01:17:34.564Z,21.87
2022-07-29T01:20:12.442Z,21.88
2022-07-29T01:22:56.594Z,21.80
2022-07-29T01:25:53.158Z,21.73
2022-07-29T01:28:56.069Z,21.64
2022-07-29T01:31:30.884Z,21.63
2022-07-29T01:34:06.035Z,21.51
2022-07-29T01:36:37.763Z,21.49
2022-07-29T01:39:10.503Z,21.47
2022-07-29T01:41:42.456Z,21.57
2022-07-29T01:44:20.361Z,21.50
2022-07-29T01:46:56.096Z,21.60
2022-07-29T01:49:33.384Z,21.54
2022-07-29T01:52:07.693Z,21.50
2022-07-29T01:54:40.728Z,21.54
2022-07-29T01:57:13.521Z,21.51
2022-07-29T01:59:52.058Z,21.43
2022-07-29T02:02:22.770Z,21.35
2022-07-29T02:04:54.730Z,21.36
2022-07-29T02:07:26.362Z,21.30
2022-07-29T02:09:55.921Z,21.22
2022-07-29T02:12:28.877Z,21.13
2022-07-29T02:15:04.068Z,21.06
2022-07-29T02:17:39.896Z,20.99
2022-07-29T02:20:12.246Z,20.99
2022-07-29T02:22:41.894Z,20.92
2022-07-29T02:25:13.827Z,20.85
2022-07-29T02:27:47.111Z,20.88
2022-07-29T02:30:21.229Z,20.78
2022-07-29T02:32:51.921Z,20.67
2022-07-29T02:35:22.266Z,20.64
2022-07-29T02:38:12.539Z,20.50
2022-07-29T02:40:44.183Z,20.41
2022-07-29T02:43:13.831Z,20.30
2022-07-29T02:45:46.319Z,20.23
2022-07-29T02:48:25.399Z,20.19
2022-07-29T02:51:00.868Z,20.15
2022-07-29T02:53:31.190Z,20.02
2022-07-29T02:56:04.824Z,19.93
2022-07-29T02:58:37.177Z,19.88
2022-07-29T03:01:16.832Z,19.83
2022-07-29T03:03:54.005Z,19.79
2022-07-29T03:06:37.926Z,19.72
2022-07-29T03:09:13.252Z,19.71
2022-07-29T03:11:50.004Z,19.71
2022-07-29T03:14:21.638Z,19.68
2022-07-29T03:16:53.159Z,19.61
2022-07-29T03:19:23.720Z,19.61
2022-07-29T03:21:53.870Z,19.61
2022-07-29T03:24:30.530Z,19.65
2022-07-29T03:27:01.278Z,19.65
2022-07-29T03:29:34.559Z,19.54
2022-07-29T03:32:08.616Z,19.46
2022-07-29T03:34:41.171Z,19.37
2022-07-29T03:37:10.340Z,19.37
2022-07-29T03:39:43.743Z,19.41
2022-07-29T03:42:18.372Z,19.43
2022-07-29T03:44:49.631Z,19.46
2022-07-29T03:47:27.025Z,19.48
2022-07-29T03:50:14.621Z,19.47
2022-07-29T03:52:45.294Z,19.54
2022-07-29T03:55:16.627Z,19.54
2022-07-29T03:57:47.595Z,19.57
2022-07-29T04:00:21.075Z,19.62
2022-07-29T04:02:52.381Z,19.71
2022-07-29T04:05:22.491Z,19.75
2022-07-29T04:07:52.966Z,19.77
2022-07-29T04:10:30.164Z,19.74
2022-07-29T04:13:02.276Z,19.81
2022-07-29T04:15:34.039Z,19.86
2022-07-29T04:18:07.300Z,19.85
2022-07-29T04:20:36.192Z,19.92
2022-07-29T04:23:07.588Z,19.97
2022-07-29T04:25:38.677Z,20.00
2022-07-29T04:28:07.690Z,20.06
2022-07-29T04:30:37.204Z,20.12
2022-07-29T04:33:10.003Z,20.19
2022-07-29T04:35:50.045Z,20.33
2022-07-29T04:38:23.296Z,20.36
2022-07-29T04:40:53.702Z,20.47
2022-07-29T04:43:25.552Z,20.50
2022-07-29T04:45:57.072Z,20.58
2022-07-29T04:48:32.743Z,20.61
2022-07-29T04:51:01.620Z,20.71
2022-07-29T04:53:32.364Z,20.80
2022-07-29T04:56:01.358Z,20.91
2022-07-29T04:58:31.774Z,20.95
2022-07-29T05:01:03.085Z,20.99
2022-07-29T05:03:35.565Z,21.08
2022-07-29T05:06:07.217Z,21.12
2022-07-29T05:08:35.133Z,21.22
2022-07-29T05:11:12.001Z,21.36
2022-07-29T05:13:45.263Z,21.51
2022-07-29T05:16:15.669Z,21.69
2022-07-29T05:18:48.007Z,21.73
2022-07-29T05:21:19.016Z,21.81
2022-07-29T05:23:47.498Z,21.94
2022-07-29T05:26:16.826Z,22.00
2022-07-29T05:28:49.232Z,22.15
2022-07-29T05:31:19.958Z,22.19
2022-07-29T05:33:50.811Z,22.29
2022-07-29T05:36:20.607Z,22.46
2022-07-29T05:38:49.451Z,22.62
2022-07-29T05:41:17.628Z,22.82
2022-07-29T05:43:46.222Z,23.00
2022-07-29T05:46:16.909Z,23.10
2022-07-29T05:48:48.950Z,23.28
2022-07-29T05:51:19.512Z,23.34
2022-07-29T05:53:48.646Z,23.58
2022-07-29T05:56:18.114Z,23.63
2022-07-29T05:58:49.178Z,23.76
2022-07-29T06:01:19.582Z,23.86
2022-07-29T06:03:48.066Z,24.05
2022-07-29T06:06:18.790Z,24.21
2022-07-29T06:08:51.009Z,24.36
2022-07-29T06:11:22.649Z,24.48
2022-07-29T06:13:53.163Z,24.51
2022-07-29T06:16:30.027Z,24.60
2022-07-29T06:19:00.805Z,24.64
2022-07-29T06:21:30.092Z,24.63
2022-07-29T06:24:01.129Z,24.64
2022-07-29T06:26:32.581Z,24.75
2022-07-29T06:29:04.629Z,24.91
2022-07-29T06:31:32.947Z,24.96
2022-07-29T06:34:05.665Z,25.04
2022-07-29T06:36:38.001Z,25.11
2022-07-29T06:39:13.112Z,25.20
2022-07-29T06:41:45.553Z,25.22
2022-07-29T06:44:18.199Z,25.32
2022-07-29T06:46:50.788Z,25.36
2022-07-29T06:49:20.861Z,25.37
2022-07-29T06:51:49.961Z,25.50
2022-07-29T06:54:22.869Z,25.53
2022-07-29T06:56:53.213Z,25.60
2022-07-29T06:59:30.981Z,25.59
2022-07-29T07:02:04.952Z,25.69
2022-07-29T07:04:34.634Z,25.74
2022-07-29T07:07:03.829Z,25.84
2022-07-29T07:09:40.414Z,25.95
2022-07-29T07:12:10.013Z,26.14
2022-07-29T07:14:39.202Z,26.36
2022-07-29T07:17:09.206Z,26.38
2022-07-29T07:19:38.092Z,26.42
2022-07-29T07:22:08.588Z,26.49
2022-07-29T07:24:38.919Z,26.50
2022-07-29T07:27:07.756Z,26.61
2022-07-29T07:29:36.491Z,26.70
2022-07-29T07:32:05.217Z,26.82
2022-07-29T07:34:34.336Z,26.91
2022-07-29T07:37:05.506Z,26.87
2022-07-29T07:39:33.817Z,26.87
2022-07-29T07:42:03.763Z,26.91
2022-07-29T07:44:46.273Z,27.04
2022-07-29T07:47:24.706Z,27.30
2022-07-29T07:49:57.619Z,27.48
2022-07-29T07:52:29.619Z,27.62
2022-07-29T07:54:57.849Z,27.69
2022-07-29T07:57:28.694Z,27.81
2022-07-29T07:59:57.408Z,27.81
2022-07-29T08:02:26.300Z,27.90
2022-07-29T08:04:54.904Z,27.97
2022-07-29T08:07:24.023Z,28.02
2022-07-29T08:09:52.155Z,28.10
2022-07-29T08:12:21.871Z,28.18
2022-07-29T08:14:52.159Z,28.33
2022-07-29T08:17:22.452Z,28.36
2022-07-29T08:19:53.418Z,28.50
2022-07-29T08:22:21.592Z,28.83
2022-07-29T08:24:55.685Z,28.80
2022-07-29T08:30:14.235Z,29.00
2022-07-29T08:32:57.951Z,29.02
2022-07-29T08:35:33.358Z,29.17
2022-07-29T08:38:04.461Z,29.06
2022-07-29T08:40:32.986Z,28.94
2022-07-29T08:43:06.751Z,29.29
2022-07-29T08:45:47.386Z,29.40
2022-07-29T08:48:17.814Z,29.63
2022-07-29T08:50:47.342Z,29.88
2022-07-29T08:53:17.176Z,30.15
2022-07-29T08:55:50.640Z,30.47
2022-07-29T08:58:23.368Z,30.79
2022-07-29T09:00:56.781Z,30.86
2022-07-29T09:03:27.869Z,31.02
2022-07-29T09:05:57.449Z,31.07
2022-07-29T09:08:26.112Z,31.24
2022-07-29T09:10:54.782Z,31.52
2022-07-29T09:13:23.177Z,31.59
2022-07-29T09:15:51.285Z,31.77
2022-07-29T09:21:32.186Z,32.17
2022-07-29T09:24:07.763Z,32.20
2022-07-29T09:26:38.537Z,32.25
2022-07-29T09:29:12.084Z,32.24
2022-07-29T09:31:41.997Z,32.55
2022-07-29T09:34:11.362Z,32.62
2022-07-29T09:36:43.436Z,32.19
2022-07-29T09:39:12.624Z,32.78
2022-07-29T09:41:49.888Z,32.95
2022-07-29T09:44:18.520Z,33.18
2022-07-29T09:47:07.006Z,32.79
2022-07-29T09:49:36.339Z,32.69
2022-07-29T09:52:10.836Z,32.83
2022-07-29T09:54:39.616Z,32.85
2022-07-29T09:57:10.789Z,33.08
2022-07-29T09:59:50.562Z,33.00
2022-07-29T10:02:23.732Z,33.30
2022-07-29T10:04:53.467Z,33.13
2022-07-29T10:07:23.506Z,33.19
2022-07-29T10:09:55.802Z,33.66
2022-07-29T10:12:25.003Z,33.37
2022-07-29T10:14:54.194Z,33.46
2022-07-29T10:17:24.041Z,33.34
2022-07-29T10:19:52.671Z,32.81
2022-07-29T10:22:50.440Z,32.61
2022-07-29T10:25:11.879Z,32.10
2022-07-29T10:27:41.063Z,32.10
2022-07-29T10:30:11.175Z,32.51
2022-07-29T10:32:54.320Z,32.78
2022-07-29T10:35:34.788Z,33.30
2022-07-29T10:38:35.743Z,33.95
2022-07-29T10:41:32.460Z,34.25
2022-07-29T10:44:22.896Z,34.91
2022-07-29T10:46:58.172Z,34.90
2022-07-29T10:49:30.764Z,34.73
2022-07-29T10:52:02.169Z,34.50
2022-07-29T10:55:01.691Z,34.52
2022-07-29T10:57:53.751Z,34.19
2022-07-29T11:00:30.390Z,34.71
2022-07-29T11:02:59.492Z,34.94
2022-07-29T11:05:32.079Z,34.83
2022-07-29T11:08:26.277Z,34.42
2022-07-29T11:11:39.544Z,33.42
2022-07-29T11:14:13.245Z,33.34
2022-07-29T11:17:06.129Z,33.34
2022-07-29T11:22:34.916Z,34.02
2022-07-29T11:25:17.116Z,34.48
2022-07-29T11:27:47.661Z,34.89
2022-07-29T11:30:16.355Z,35.28
2022-07-29T11:32:50.040Z,35.58
2022-07-29T11:35:37.696Z,35.92
2022-07-29T11:38:28.967Z,36.20
2022-07-29T11:41:27.358Z,36.09
2022-07-29T11:44:01.276Z,35.76
2022-07-29T11:46:47.768Z,35.93
2022-07-29T11:49:21.954Z,35.88
2022-07-29T11:52:03.347Z,36.24
2022-07-29T11:54:38.736Z,36.45
2022-07-29T11:57:29.541Z,36.50
2022-07-29T12:00:12.143Z,36.34
2022-07-29T12:02:43.291Z,36.54
2022-07-29T12:05:12.988Z,36.26
2022-07-29T12:07:45.530Z,36.39
2022-07-29T12:10:30.073Z,36.51
2022-07-29T12:12:58.909Z,36.77
2022-07-29T12:15:46.117Z,36.66
2022-07-29T12:18:23.805Z,35.56
2022-07-29T12:21:03.391Z,35.68
2022-07-29T12:23:34.676Z,36.71
2022-07-29T12:26:07.646Z,36.84
2022-07-29T12:28:41.027Z,37.12
2022-07-29T12:31:43.493Z,37.52
2022-07-29T12:34:05.263Z,37.23
2022-07-29T12:36:34.421Z,37.23
2022-07-29T12:39:03.658Z,37.28
2022-07-29T12:41:33.265Z,37.37
2022-07-29T12:44:01.950Z,37.74
2022-07-29T12:46:33.135Z,38.01
2022-07-29T12:49:04.392Z,37.88
2022-07-29T12:51:34.945Z,37.84
2022-07-29T12:54:09.814Z,37.35
2022-07-29T12:56:44.552Z,37.42
2022-07-29T12:59:16.625Z,37.35
2022-07-29T13:01:49.633Z,36.43
2022-07-29T13:04:28.110Z,36.10
2022-07-29T13:07:04.889Z,35.79
2022-07-29T13:09:42.108Z,35.35
2022-07-29T13:12:12.897Z,35.15
2022-07-29T13:14:43.418Z,34.91
2022-07-29T13:17:15.773Z,34.64
2022-07-29T13:19:46.525Z,34.82
2022-07-29T13:22:18.646Z,34.86
2022-07-29T13:24:54.201Z,34.80
2022-07-29T13:27:25.171Z,34.73
2022-07-29T13:29:56.114Z,34.76
2022-07-29T13:32:27.764Z,34.55
2022-07-29T13:34:56.966Z,34.69
2022-07-29T13:37:26.856Z,34.21
2022-07-29T13:39:57.029Z,34.21
2022-07-29T13:42:25.861Z,34.09
2022-07-29T13:44:55.283Z,34.23
2022-07-29T13:47:32.151Z,33.93
2022-07-29T13:50:02.233Z,34.04
2022-07-29T13:52:30.933Z,33.97
2022-07-29T13:54:59.286Z,33.64
2022-07-29T13:57:28.082Z,33.95
2022-07-29T13:59:56.285Z,33.95
2022-07-29T14:02:26.475Z,33.90
2022-07-29T14:04:55.987Z,34.02
2022-07-29T14:07:25.292Z,34.02
2022-07-29T14:09:53.919Z,34.15
2022-07-29T14:12:22.384Z,34.06
2022-07-29T14:14:51.386Z,34.09
2022-07-29T14:17:22.918Z,34.04
2022-07-29T14:19:53.834Z,34.12
2022-07-29T14:22:25.540Z,33.85
2022-07-29T14:24:57.322Z,33.91
2022-07-29T14:27:37.720Z,34.16
2022-07-29T14:30:08.413Z,34.19
2022-07-29T14:32:39.406Z,34.39
2022-07-29T14:35:10.165Z,34.42
2022-07-29T14:37:40.589Z,34.29
2022-07-29T14:40:11.427Z,34.26
2022-07-29T14:42:41.023Z,34.33
2022-07-29T14:45:13.586Z,34.08
2022-07-29T14:47:43.006Z,33.95
2022-07-29T14:50:15.987Z,33.64
2022-07-29T14:52:48.786Z,33.53
2022-07-29T14:55:20.003Z,33.43
2022-07-29T14:57:51.213Z,33.33
2022-07-29T15:00:24.402Z,33.25
2022-07-29T15:03:02.047Z,33.15
2022-07-29T15:05:33.151Z,33.08
2022-07-29T15:08:01.868Z,32.98
2022-07-29T15:10:30.111Z,32.88
2022-07-29T15:12:58.924Z,32.95
2022-07-29T15:15:27.449Z,33.06
2022-07-29T15:17:55.698Z,33.15
2022-07-29T15:20:26.236Z,33.25
2022-07-29T15:27:04.820Z,33.42
2022-07-29T15:30:31.472Z,33.50
2022-07-29T15:38:12.932Z,33.51
2022-07-29T15:41:42.834Z,33.45
2022-07-29T15:44:11.243Z,33.46
2022-07-29T15:46:57.216Z,33.42
2022-07-29T15:49:48.819Z,33.37
2022-07-29T15:53:14.513Z,33.15
2022-07-29T15:55:43.312Z,33.19
2022-07-29T15:58:14.723Z,33.27
2022-07-29T16:00:44.910Z,33.19
2022-07-29T16:03:16.276Z,33.20
2022-07-29T16:05:47.922Z,33.19
2022-07-29T16:08:17.907Z,33.16
2022-07-29T16:10:46.086Z,33.15
2022-07-29T16:13:19.080Z,33.00
2022-07-29T16:16:02.083Z,33.02
2022-07-29T16:18:31.691Z,33.02
2022-07-29T16:20:59.899Z,32.98
2022-07-29T16:23:29.317Z,33.02
2022-07-29T16:26:00.226Z,32.79
2022-07-29T16:28:31.405Z,32.71
2022-07-29T16:31:04.186Z,32.62
2022-07-29T16:33:55.585Z,32.48
2022-07-29T16:36:22.885Z,32.45
2022-07-29T16:38:51.341Z,32.42
2022-07-29T16:41:23.849Z,32.23
2022-07-29T16:43:56.462Z,32.06
2022-07-29T16:46:26.592Z,31.90
2022-07-29T16:48:55.737Z,31.80
2022-07-29T16:51:24.388Z,31.77
2022-07-29T16:53:55.482Z,31.61
2022-07-29T16:56:24.061Z,31.62
2022-07-29T16:58:54.064Z,31.69
2022-07-29T17:01:23.570Z,31.70
2022-07-29T17:04:09.682Z,31.65
2022-07-29T17:06:41.677Z,31.63
2022-07-29T17:09:11.787Z,31.58
2022-07-29T17:11:51.871Z,31.49
2022-07-29T17:14:28.776Z,31.31
2022-07-29T17:17:02.170Z,31.21
2022-07-29T17:19:34.371Z,31.12
2022-07-29T17:22:12.597Z,31.00
2022-07-29T17:24:45.422Z,30.91
2022-07-29T17:27:14.222Z,30.90
2022-07-29T17:29:44.050Z,30.88
2022-07-29T17:32:13.027Z,30.81
2022-07-29T17:34:42.749Z,30.79
2022-07-29T17:37:12.867Z,30.67
2022-07-29T17:39:43.357Z,30.56
2022-07-29T17:42:13.242Z,30.57
2022-07-29T17:44:44.112Z,30.49
2022-07-29T17:47:15.854Z,30.39
2022-07-29T17:49:45.805Z,30.32
2022-07-29T17:52:14.728Z,30.19
2022-07-29T17:54:44.309Z,29.98
2022-07-29T17:57:12.670Z,29.78
2022-07-29T17:59:43.376Z,29.64
2022-07-29T18:02:14.585Z,29.50
2022-07-29T18:04:43.263Z,29.31
2022-07-29T18:07:11.833Z,29.19
2022-07-29T18:09:40.732Z,29.00
2022-07-29T18:12:11.731Z,28.89
2022-07-29T18:14:40.313Z,28.72
2022-07-29T18:17:10.700Z,28.67
2022-07-29T18:19:42.504Z,28.55
2022-07-29T18:22:13.238Z,28.47
2022-07-29T18:24:41.946Z,28.36
2022-07-29T18:27:10.771Z,28.28
2022-07-29T18:29:40.609Z,28.14
2022-07-29T18:32:09.249Z,27.94
2022-07-29T18:34:39.277Z,27.90
2022-07-29T18:37:09.528Z,27.73
2022-07-29T18:39:38.326Z,27.63
2022-07-29T18:42:09.126Z,27.55
2022-07-29T18:44:43.586Z,27.45
2022-07-29T18:47:13.821Z,27.37
2022-07-29T18:49:45.028Z,27.33
2022-07-29T18:52:16.434Z,27.24
